»·PEaware :: DCM205 KWYS-KSUN

DCM205 :: KWYS-KSUN

FLIGHT INFORMATION

Flight Status: Arrived
Operator:
DotCom
More flights by this operator :: More flights under this callsign
Pilot: Chris S. (2433)
Aircraft: DEHAVILLAND DASH 8 400
(DH8D)
More flights by this aircraft type
Origin: KWYS Yellowstone
United States
Destination: KSUN Friedman Meml
United States
More flights between these airports :: More routes between these airports
Route: DBS HLE
File this flight plan on PilotEdge
Remarks:
Altitude:
(Current/Filed)
20,000ft
Speed:
(Current/Filed)
350kts
Departed: 31-Dec-20 11:45 AM
Arrived: 31-Dec-20 12:25 PM
Distance/Time
Traveled:
154nm/0:39
Distance/Time
To Go:
Arrived

Flight Plot

Page will automatically refresh every two minutes.

Flight plan parsing failed; only flown route is shown


Map Options




Map Legend


Flown Route
Filed Route
Departure Airport
Arrival Airport
Navaid (VOR, NDB)
Fix

Horizontal Profiles

Position Reports

Time Latitude Longitude Heading Altitude Ground
Speed
31-Dec-20 11:22 44.686844 -111.115082 316 6651ft 0kts
31-Dec-20 11:23 44.686844 -111.115082 316 6651ft 0kts
31-Dec-20 11:24 44.686844 -111.115082 316 6651ft 0kts
31-Dec-20 11:25 44.686844 -111.115082 316 6651ft 0kts
31-Dec-20 11:28 44.686916 -111.115101 151 6651ft 0kts
31-Dec-20 11:29 44.686916 -111.115101 151 6651ft 0kts
31-Dec-20 11:30 44.686916 -111.115101 151 6651ft 0kts
31-Dec-20 11:31 44.686916 -111.115101 151 6651ft 0kts
31-Dec-20 11:32 44.686916 -111.115101 151 6651ft 0kts
31-Dec-20 11:33 44.686916 -111.115101 151 6651ft 0kts
31-Dec-20 11:34 44.686916 -111.115101 151 6651ft 0kts
31-Dec-20 11:35 44.686916 -111.115101 151 6651ft 0kts
31-Dec-20 11:36 44.686916 -111.115101 151 6651ft 0kts
31-Dec-20 11:37 44.686916 -111.115101 151 6651ft 0kts
31-Dec-20 11:38 44.686934 -111.115115 151 6651ft 0kts
31-Dec-20 11:39 44.686844 -111.115375 255 6651ft 3kts
31-Dec-20 11:40 44.687692 -111.116439 25 6651ft 10kts
31-Dec-20 11:41 44.691697 -111.113656 26 6651ft 17kts
31-Dec-20 11:42 44.696436 -111.110380 27 6651ft 20kts
31-Dec-20 11:44 44.698084 -111.109436 345 6651ft 1kts
31-Dec-20 11:45 44.695848 -111.112471 206 6651ft 67kts
31-Dec-20 11:46 44.663485 -111.138308 228 7827ft 157kts
31-Dec-20 11:47 44.630640 -111.196695 234 9812ft 217kts
31-Dec-20 11:48 44.590958 -111.276096 236 10596ft 288kts
31-Dec-20 11:49 44.537767 -111.369326 232 10864ft 308kts
31-Dec-20 11:50 44.489125 -111.454431 233 13767ft 255kts
31-Dec-20 11:51 44.445981 -111.530343 234 15750ft 249kts
31-Dec-20 11:52 44.411398 -111.614929 242 17276ft 252kts
31-Dec-20 11:53 44.377235 -111.701864 242 18590ft 258kts
31-Dec-20 11:54 44.342146 -111.791008 242 19698ft 265kts
31-Dec-20 11:55 44.305104 -111.884830 242 20124ft 291kts
31-Dec-20 11:56 44.264031 -111.988308 242 20141ft 317kts
31-Dec-20 11:57 44.220258 -112.098190 242 20141ft 330kts
31-Dec-20 11:58 44.175000 -112.211251 241 20139ft 337kts
31-Dec-20 11:58 44.136606 -112.306798 241 20140ft 340kts
31-Dec-20 12:00 44.082361 -112.441227 241 20139ft 343kts
31-Dec-20 12:01 44.035408 -112.557014 241 20146ft 343kts
31-Dec-20 12:02 43.988417 -112.672499 241 20153ft 344kts
31-Dec-20 12:02 43.949157 -112.768719 241 20149ft 344kts
31-Dec-20 12:03 43.901893 -112.883980 241 20150ft 344kts
31-Dec-20 12:04 43.844061 -112.988148 224 19515ft 340kts
31-Dec-20 12:05 43.776639 -113.075770 225 17915ft 328kts
31-Dec-20 12:06 43.711311 -113.161163 225 16492ft 319kts
31-Dec-20 12:07 43.647154 -113.244905 225 16025ft 324kts
31-Dec-20 12:08 43.579990 -113.332313 225 15998ft 338kts
31-Dec-20 12:09 43.511041 -113.421787 224 15844ft 337kts
31-Dec-20 12:10 43.444420 -113.507657 226 14838ft 323kts
31-Dec-20 12:11 43.379482 -113.591407 222 13842ft 318kts
31-Dec-20 12:12 43.315167 -113.673845 224 12854ft 315kts
31-Dec-20 12:13 43.250895 -113.756093 225 12056ft 315kts
31-Dec-20 12:14 43.188439 -113.835924 225 12009ft 302kts
31-Dec-20 12:15 43.156316 -113.932509 281 12008ft 284kts
31-Dec-20 12:16 43.195882 -114.022547 318 12009ft 277kts
31-Dec-20 12:17 43.254008 -114.084175 324 11029ft 241kts
31-Dec-20 12:18 43.303778 -114.135024 322 9276ft 213kts
31-Dec-20 12:19 43.348530 -114.179522 329 7937ft 184kts
31-Dec-20 12:20 43.389299 -114.209299 328 7538ft 161kts
31-Dec-20 12:21 43.426649 -114.232878 336 6503ft 135kts
31-Dec-20 12:22 43.461136 -114.256002 330 6125ft 140kts
31-Dec-20 12:23 43.493246 -114.285331 323 5400ft 136kts
31-Dec-20 12:24 43.505530 -114.298469 254 5318ft 5kts
31-Dec-20 12:25 43.507552 -114.300707 324 5319ft 17kts
31-Dec-20 12:26 43.507365 -114.301132 162 5319ft 4kts
31-Dec-20 12:27 43.507295 -114.301099 160 5319ft 0kts
31-Dec-20 12:28 43.507295 -114.301099 160 5319ft 0kts
31-Dec-20 12:29 43.507295 -114.301099 160 5319ft 0kts

Navigation Log

Ident Type
Flight plan parsing failed, navigation log unavailable